TimeEST,TemperatureF,Dew PointF,Humidity,Sea Level PressureIn,VisibilityMPH,Wind Direction,Wind SpeedMPH,Gust SpeedMPH,PrecipitationIn,Events,Conditions,WindDirDegrees,DateUTC
12:56 AM,42.1,34.0,73,30.30,-9999.0,West,5.8,-,N/A,,Clear,280,2013-01-06 05:56:00
1:56 AM,44.1,36.0,73,30.28,-9999.0,WSW,3.5,-,N/A,,Clear,250,2013-01-06 06:56:00
2:56 AM,43.0,33.1,68,30.25,-9999.0,Calm,Calm,-,N/A,,Partly Cloudy,0,2013-01-06 07:56:00
3:56 AM,43.0,33.1,68,30.23,-9999.0,South,3.5,-,N/A,,Scattered Clouds,170,2013-01-06 08:56:00
4:56 AM,43.0,37.0,80,30.24,-9999.0,SW,4.6,-,N/A,,Overcast,230,2013-01-06 09:56:00
5:56 AM,44.1,37.9,79,30.23,-9999.0,Calm,Calm,-,N/A,,Overcast,0,2013-01-06 10:56:00
6:56 AM,45.0,39.0,80,30.24,-9999.0,Calm,Calm,-,N/A,,Overcast,0,2013-01-06 11:56:00
7:56 AM,45.0,37.0,74,30.23,-9999.0,Calm,Calm,-,N/A,,Overcast,0,2013-01-06 12:56:00
8:56 AM,46.0,37.9,73,30.23,-9999.0,Calm,Calm,-,N/A,,Overcast,0,2013-01-06 13:56:00
9:56 AM,48.0,37.9,68,30.25,-9999.0,WSW,3.5,-,N/A,,Overcast,240,2013-01-06 14:56:00
10:56 AM,48.0,37.0,66,30.24,-9999.0,WSW,5.8,-,N/A,,Overcast,250,2013-01-06 15:56:00
11:56 AM,50.0,36.0,59,30.20,-9999.0,West,5.8,-,N/A,,Overcast,260,2013-01-06 16:56:00
12:56 PM,48.0,39.9,74,30.16,-9999.0,West,5.8,-,N/A,,Overcast,270,2013-01-06 17:56:00
1:56 PM,48.9,42.1,77,30.14,-9999.0,West,9.2,-,N/A,,Overcast,260,2013-01-06 18:56:00
2:56 PM,48.9,43.0,80,30.13,-9999.0,West,12.7,-,N/A,,Overcast,270,2013-01-06 19:56:00
3:17 PM,48.2,42.8,82,30.12,-9999.0,West,10.4,-,N/A,,Overcast,260,2013-01-06 20:17:00
3:56 PM,48.0,44.1,86,30.13,-9999.0,West,8.1,-,N/A,,Overcast,260,2013-01-06 20:56:00
4:51 PM,48.2,44.6,87,30.11,-9999.0,West,3.5,-,N/A,,Overcast,260,2013-01-06 21:51:00
4:56 PM,48.0,45.0,89,30.12,-9999.0,West,3.5,-,N/A,,Overcast,270,2013-01-06 21:56:00
5:18 PM,48.2,44.6,87,30.10,-9999.0,Calm,Calm,-,N/A,,Overcast,0,2013-01-06 22:18:00
5:56 PM,48.0,45.0,89,30.11,-9999.0,WSW,3.5,-,N/A,,Overcast,240,2013-01-06 22:56:00
6:56 PM,48.0,45.0,89,30.10,-9999.0,Calm,Calm,-,N/A,,Overcast,0,2013-01-06 23:56:00
7:56 PM,48.0,45.0,89,30.11,-9999.0,Calm,Calm,-,0.00,Rain,Light Rain,0,2013-01-07 00:56:00
8:56 PM,48.0,46.0,93,30.12,-9999.0,Calm,Calm,-,0.01,Rain,Light Rain,0,2013-01-07 01:56:00
9:14 PM,48.2,46.4,93,30.10,-9999.0,Calm,Calm,-,0.00,,Overcast,0,2013-01-07 02:14:00
9:56 PM,48.0,46.0,93,30.13,-9999.0,NW,4.6,-,0.00,,Overcast,310,2013-01-07 02:56:00
10:04 PM,48.2,46.4,93,30.11,-9999.0,NW,3.5,-,N/A,,Overcast,310,2013-01-07 03:04:00
10:54 PM,48.2,44.6,87,30.12,-9999.0,NW,8.1,-,0.00,,Overcast,310,2013-01-07 03:54:00
10:56 PM,48.0,45.0,89,30.14,-9999.0,NW,6.9,-,0.00,,Overcast,310,2013-01-07 03:56:00
11:56 PM,46.9,45.0,93,30.15,-9999.0,NW,9.2,-,N/A,,Overcast,310,2013-01-07 04:56:00